Time;durP1;ratioP1;P1;durP2;ratioP2;P2;SDS_P1;SDS_P2;PMS_P1;PMS_P2;Temp;Humidity;BMP_temperature;BMP_pressure;BME280_temperature;BME280_humidity;BME280_pressure;Samples;Min_cycle;Max_cycle;Signal;HPM_P1;HPM_P2
2022/06/10 00:01:37;;;;;;;8.15;2.60;;;14.00;99.90;;;;;;5072417;28;20033;-48
2022/06/10 00:04:03;;;;;;;10.07;2.50;;;13.90;99.90;;;;;;5071650;28;20037;-47
2022/06/10 00:06:29;;;;;;;9.68;2.50;;;14.00;99.90;;;;;;5072839;28;20089;-46
2022/06/10 00:08:54;;;;;;;8.98;2.75;;;13.90;99.90;;;;;;5072621;28;20036;-48
2022/06/10 00:11:20;;;;;;;10.23;2.60;;;13.80;99.90;;;;;;5072331;28;20476;-46
2022/06/10 00:13:47;;;;;;;8.15;2.60;;;13.80;99.90;;;;;;5072599;28;20036;-50
2022/06/10 00:16:15;;;;;;;9.68;3.08;;;13.80;99.90;;;;;;5072314;28;20123;-48
2022/06/10 00:18:41;;;;;;;10.13;3.03;;;13.70;99.90;;;;;;5072438;28;20036;-45
2022/06/10 00:21:09;;;;;;;11.45;3.15;;;13.80;99.90;;;;;;5071772;28;20054;-47
2022/06/10 00:23:35;;;;;;;9.57;3.08;;;13.70;99.90;;;;;;5071705;28;20192;-50
2022/06/10 00:26:01;;;;;;;9.95;3.10;;;13.50;99.90;;;;;;5071811;28;20047;-46
2022/06/10 00:28:26;;;;;;;10.32;3.03;;;13.60;99.90;;;;;;5035305;28;20045;-47
2022/06/10 00:30:53;;;;;;;10.38;3.10;;;13.50;99.90;;;;;;5070365;28;20090;-49
2022/06/10 00:33:20;;;;;;;9.13;2.83;;;13.40;99.90;;;;;;5070890;28;20111;-46
2022/06/10 00:35:46;;;;;;;11.48;3.45;;;13.40;99.90;;;;;;5071915;28;20036;-48
2022/06/10 00:38:12;;;;;;;11.18;3.28;;;13.40;99.90;;;;;;5072022;28;20372;-48
2022/06/10 00:40:41;;;;;;;8.70;2.78;;;13.30;99.90;;;;;;5072051;28;20082;-47
2022/06/10 00:43:12;;;;;;;9.32;3.00;;;13.40;99.90;;;;;;5072131;28;20439;-50
2022/06/10 00:45:59;;;;;;;11.43;3.10;;;13.30;99.90;;;;;;5071713;28;20097;-49
2022/06/10 00:48:47;;;;;;;7.93;3.63;;;13.30;99.90;;;;;;5071922;28;20098;-48
2022/06/10 00:51:26;;;;;;;8.20;2.72;;;13.30;99.90;;;;;;5071908;28;20434;-47
2022/06/10 00:54:04;;;;;;;7.75;2.63;;;13.20;99.90;;;;;;5071793;28;20033;-48
2022/06/10 00:56:31;;;;;;;12.27;2.63;;;13.20;99.90;;;;;;5071617;28;20048;-47
2022/06/10 00:59:02;;;;;;;9.40;2.88;;;13.20;99.90;;;;;;5071626;28;20040;-47
2022/06/10 01:01:31;;;;;;;12.00;2.70;;;13.20;99.90;;;;;;5071372;28;20491;-46
2022/06/10 01:03:57;;;;;;;6.78;2.58;;;13.20;99.90;;;;;;5071439;28;20048;-47
2022/06/10 01:06:23;;;;;;;11.23;3.10;;;13.20;99.90;;;;;;5053463;28;20032;-47
2022/06/10 01:08:51;;;;;;;8.15;2.53;;;13.10;99.90;;;;;;5053884;28;20407;-48
2022/06/10 01:11:43;;;;;;;10.75;2.83;;;13.10;99.90;;;;;;5071530;28;20040;-49
2022/06/10 01:14:37;;;;;;;8.43;2.70;;;13.10;99.90;;;;;;5070664;28;20036;-47
2022/06/10 01:17:16;;;;;;;10.50;2.80;;;13.00;99.90;;;;;;5071527;28;20495;-48
2022/06/10 01:20:06;;;;;;;12.57;3.08;;;12.90;99.90;;;;;;5071461;28;20032;-45
2022/06/10 01:23:09;;;;;;;9.60;2.63;;;13.00;99.90;;;;;;5071482;28;20044;-46
2022/06/10 01:26:13;;;;;;;11.38;2.72;;;12.90;99.90;;;;;;5071213;28;20047;-48
2022/06/10 01:29:16;;;;;;;8.33;2.40;;;12.90;99.90;;;;;;5071346;28;20468;-46
2022/06/10 01:31:53;;;;;;;10.55;2.75;;;12.90;99.90;;;;;;5070938;28;20048;-48
2022/06/10 01:34:22;;;;;;;9.85;2.40;;;12.90;99.90;;;;;;5071027;28;20032;-48
2022/06/10 01:36:53;;;;;;;11.30;2.38;;;12.80;99.90;;;;;;5071139;28;20035;-50
2022/06/10 01:39:53;;;;;;;10.05;2.63;;;12.90;99.90;;;;;;5070859;28;20448;-46
2022/06/10 01:42:36;;;;;;;9.95;2.80;;;12.90;99.90;;;;;;5069720;28;20048;-44
2022/06/10 01:45:29;;;;;;;11.77;2.90;;;12.90;99.90;;;;;;5069604;28;20086;-46
2022/06/10 01:48:29;;;;;;;10.45;2.83;;;12.90;99.90;;;;;;5070694;28;20040;-47
2022/06/10 01:51:09;;;;;;;14.63;3.10;;;12.80;99.90;;;;;;5037987;28;20494;-50
2022/06/10 01:53:45;;;;;;;9.20;2.95;;;12.80;99.90;;;;;;5070609;28;20071;-49
2022/06/10 01:56:23;;;;;;;12.07;2.63;;;12.80;99.90;;;;;;5070689;28;20053;-47
2022/06/10 01:59:01;;;;;;;14.20;3.22;;;12.80;99.90;;;;;;5070228;28;20039;-50
2022/06/10 02:01:32;;;;;;;14.00;3.20;;;12.70;99.90;;;;;;5070345;28;20039;-47
2022/06/10 02:04:19;;;;;;;12.73;3.42;;;12.70;99.90;;;;;;5070477;28;20044;-49
2022/06/10 02:06:57;;;;;;;11.38;3.15;;;12.70;99.90;;;;;;5070562;28;20193;-46
2022/06/10 02:09:30;;;;;;;9.90;3.00;;;12.70;99.90;;;;;;5070635;28;20047;-48
2022/06/10 02:12:02;;;;;;;10.73;3.15;;;12.60;99.90;;;;;;5068989;28;20043;-47
2022/06/10 02:14:37;;;;;;;8.07;3.00;;;12.70;99.90;;;;;;5069966;28;20043;-45
2022/06/10 02:17:06;;;;;;;9.07;2.85;;;12.60;99.90;;;;;;5070257;28;20082;-46
2022/06/10 02:19:37;;;;;;;7.88;2.65;;;12.60;99.90;;;;;;5070377;28;20044;-49
2022/06/10 02:22:14;;;;;;;9.45;3.28;;;12.60;99.90;;;;;;5070018;28;20553;-50
2022/06/10 02:24:46;;;;;;;9.45;3.05;;;12.60;99.90;;;;;;5070059;28;20045;-49
2022/06/10 02:27:23;;;;;;;13.05;3.17;;;12.50;99.90;;;;;;5070214;28;20029;-46
2022/06/10 02:30:05;;;;;;;8.30;2.90;;;12.60;99.90;;;;;;5070211;28;20032;-47
2022/06/10 02:32:33;;;;;;;11.55;2.97;;;12.60;99.90;;;;;;5069483;28;20047;-49
2022/06/10 02:34:59;;;;;;;12.40;3.10;;;12.50;99.90;;;;;;5068635;28;20036;-49
2022/06/10 02:37:53;;;;;;;10.15;3.28;;;12.50;99.90;;;;;;5070184;28;20037;-46
2022/06/10 02:40:48;;;;;;;12.00;2.65;;;12.50;99.90;;;;;;5069430;28;20032;-45
2022/06/10 02:43:19;;;;;;;;;;;12.50;99.90;;;;;;5070750;28;20120;-47
2022/06/10 02:46:18;;;;;;;14.80;3.17;;;12.50;99.90;;;;;;5069124;28;20036;-48
2022/06/10 02:49:08;;;;;;;10.35;3.38;;;12.40;99.90;;;;;;5069711;28;20050;-51
2022/06/10 02:51:35;;;;;;;11.25;3.38;;;12.40;99.90;;;;;;5070159;28;20060;-48
2022/06/10 02:54:04;;;;;;;10.73;3.17;;;12.40;99.90;;;;;;5069949;28;20040;-47
2022/06/10 02:56:30;;;;;;;11.52;3.10;;;12.40;99.90;;;;;;5069651;28;20048;-49
2022/06/10 03:02:07;;;;;;;12.48;3.17;;;12.40;99.90;;;;;;5073393;28;20040;-47
2022/06/10 03:05:20;;;;;;;9.40;3.35;;;12.40;99.90;;;;;;5073422;28;20040;-49
2022/06/10 03:08:01;;;;;;;15.23;3.90;;;12.30;99.90;;;;;;5073992;28;20417;-48
2022/06/10 03:11:14;;;;;;;11.43;3.15;;;12.40;99.90;;;;;;5055804;28;20063;-48
2022/06/10 03:13:40;;;;;;;15.18;3.10;;;12.30;99.90;;;;;;5017925;28;20040;-46
2022/06/10 03:16:30;;;;;;;15.98;3.55;;;12.30;99.90;;;;;;5055324;28;20032;-48
2022/06/10 03:19:05;;;;;;;10.30;3.75;;;12.30;99.90;;;;;;5055629;28;20208;-47
2022/06/10 03:22:06;;;;;;;12.20;3.55;;;12.20;99.90;;;;;;5073294;28;20132;-49
2022/06/10 03:24:53;;;;;;;10.48;3.40;;;12.20;99.90;;;;;;5034641;28;20059;-46
2022/06/10 03:27:43;;;;;;;13.77;3.88;;;12.20;99.90;;;;;;5073120;28;20054;-47
2022/06/10 03:30:17;;;;;;;12.63;3.55;;;12.20;99.90;;;;;;5073386;28;20119;-46
2022/06/10 03:32:48;;;;;;;;;;;12.30;99.90;;;;;;5073501;28;20071;-48
2022/06/10 03:35:48;;;;;;;13.13;3.70;;;12.30;99.90;;;;;;5073027;28;20275;-48
2022/06/10 03:38:15;;;;;;;13.68;3.88;;;12.20;99.90;;;;;;5040530;28;20044;-45
2022/06/10 03:40:41;;;;;;;12.93;3.95;;;12.20;99.90;;;;;;5072971;28;20384;-48
2022/06/10 03:43:11;;;;;;;13.10;3.75;;;12.30;99.90;;;;;;5072610;28;20040;-48
2022/06/10 03:45:41;;;;;;;12.45;3.67;;;12.30;99.90;;;;;;5055221;28;20075;-47
2022/06/10 03:48:08;;;;;;;11.90;3.85;;;12.30;99.90;;;;;;5072933;28;20123;-50
2022/06/10 03:50:37;;;;;;;14.52;3.92;;;12.30;99.90;;;;;;5073103;28;20146;-48
2022/06/10 03:53:04;;;;;;;13.32;3.88;;;12.30;99.90;;;;;;5072308;28;20032;-49
2022/06/10 03:55:30;;;;;;;14.75;4.03;;;12.30;99.90;;;;;;5072397;28;20083;-48
2022/06/10 03:57:55;;;;;;;14.35;4.05;;;12.40;99.90;;;;;;5072346;28;20040;-49
2022/06/10 04:00:26;;;;;;;13.05;4.25;;;12.40;99.90;;;;;;5072798;28;20094;-47
2022/06/10 04:02:52;;;;;;;13.27;4.35;;;12.40;99.90;;;;;;5072271;28;20043;-46
2022/06/10 04:05:18;;;;;;;10.93;3.88;;;12.50;99.90;;;;;;5072784;28;20040;-49
2022/06/10 04:07:44;;;;;;;12.20;4.40;;;12.50;99.90;;;;;;5070675;28;20086;-46
2022/06/10 04:10:16;;;;;;;13.75;4.50;;;12.50;99.90;;;;;;5072579;28;20036;-46
2022/06/10 04:12:41;;;;;;;15.15;4.13;;;12.50;99.90;;;;;;5072528;28;20119;-45
2022/06/10 04:15:08;;;;;;;13.90;3.72;;;12.60;99.90;;;;;;5053007;28;20123;-46
2022/06/10 04:17:34;;;;;;;10.15;4.18;;;12.70;99.90;;;;;;5071582;28;20032;-47
2022/06/10 04:20:00;;;;;;;14.52;4.20;;;12.80;99.90;;;;;;5072410;28;20086;-48
2022/06/10 04:22:26;;;;;;;14.13;4.15;;;12.80;99.90;;;;;;5054190;28;20056;-52
2022/06/10 04:24:53;;;;;;;12.85;4.10;;;12.90;99.90;;;;;;5072333;28;20486;-48
2022/06/10 04:27:20;;;;;;;11.80;3.80;;;12.90;99.90;;;;;;5072255;28;20032;-46
2022/06/10 04:29:45;;;;;;;11.68;3.80;;;13.00;99.90;;;;;;5072203;28;20072;-45
2022/06/10 04:32:12;;;;;;;12.57;4.25;;;13.10;99.90;;;;;;5053599;28;20988;-45
2022/06/10 04:34:37;;;;;;;13.52;4.57;;;13.20;99.90;;;;;;5071894;28;20040;-48
2022/06/10 04:37:04;;;;;;;18.13;4.40;;;13.30;99.90;;;;;;5072357;28;20054;-47
2022/06/10 04:39:30;;;;;;;11.82;4.20;;;13.40;99.90;;;;;;5071942;28;20464;-49
2022/06/10 04:41:56;;;;;;;17.38;4.78;;;13.50;99.90;;;;;;5072359;28;20094;-47
2022/06/10 04:44:22;;;;;;;13.27;4.30;;;13.40;99.90;;;;;;5071892;28;20098;-48
2022/06/10 04:46:48;;;;;;;9.98;4.18;;;13.50;99.90;;;;;;5071508;28;20454;-46
2022/06/10 04:49:14;;;;;;;13.45;4.63;;;13.40;99.90;;;;;;5071785;28;20145;-47
2022/06/10 04:51:40;;;;;;;13.30;4.65;;;13.40;99.90;;;;;;5071439;28;20131;-44
2022/06/10 04:54:07;;;;;;;12.60;4.43;;;13.40;99.90;;;;;;5071458;28;20039;-47
2022/06/10 04:56:33;;;;;;;10.55;4.80;;;13.50;99.90;;;;;;5071818;28;20041;-47
2022/06/10 04:58:59;;;;;;;9.13;4.32;;;13.50;99.90;;;;;;5053581;28;20124;-47
2022/06/10 05:01:24;;;;;;;12.18;4.30;;;13.60;99.90;;;;;;5071421;28;20462;-46
2022/06/10 05:03:50;;;;;;;11.68;4.65;;;13.60;99.90;;;;;;5071157;28;20445;-48
2022/06/10 05:06:16;;;;;;;12.77;4.10;;;13.70;99.90;;;;;;5071656;28;20124;-50
2022/06/10 05:08:42;;;;;;;11.75;4.40;;;13.80;99.90;;;;;;5071496;28;20044;-49
2022/06/10 05:11:07;;;;;;;16.67;4.30;;;13.80;99.90;;;;;;5071409;28;20094;-50
2022/06/10 05:13:34;;;;;;;13.48;4.15;;;13.80;99.90;;;;;;5053413;28;20036;-48
2022/06/10 05:16:00;;;;;;;9.60;3.88;;;13.80;99.90;;;;;;5071390;28;20044;-44
2022/06/10 05:18:26;;;;;;;16.00;4.05;;;13.90;99.90;;;;;;5071331;28;20101;-48
2022/06/10 05:20:53;;;;;;;14.43;3.50;;;13.80;99.90;;;;;;5069690;28;20226;-46
2022/06/10 05:23:21;;;;;;;11.55;4.35;;;13.80;99.90;;;;;;5071591;28;20044;-47
2022/06/10 05:25:48;;;;;;;14.20;4.40;;;14.00;99.90;;;;;;5071011;28;20041;-46
2022/06/10 05:28:14;;;;;;;18.63;5.03;;;13.90;99.90;;;;;;5069947;28;20032;-48
2022/06/10 05:30:40;;;;;;;12.68;4.60;;;13.90;99.90;;;;;;5070874;28;20040;-46
2022/06/10 05:33:08;;;;;;;15.32;4.60;;;14.00;99.90;;;;;;5070797;28;20399;-48
2022/06/10 05:35:34;;;;;;;13.98;4.47;;;13.90;99.90;;;;;;5070926;28;20040;-48
2022/06/10 05:38:00;;;;;;;16.63;4.72;;;14.10;99.90;;;;;;5071132;28;20133;-45
2022/06/10 05:40:30;;;;;;;16.08;4.95;;;14.00;99.90;;;;;;5070750;28;20056;-47
2022/06/10 05:42:55;;;;;;;17.45;4.78;;;14.10;99.90;;;;;;5070936;28;20043;-47
2022/06/10 05:45:22;;;;;;;15.23;4.80;;;14.30;99.90;;;;;;5052408;28;20044;-48
2022/06/10 05:47:50;;;;;;;14.20;4.63;;;14.20;99.90;;;;;;5070715;28;20032;-50
2022/06/10 05:50:21;;;;;;;13.07;5.22;;;14.40;99.90;;;;;;5070601;28;20068;-48
2022/06/10 05:52:48;;;;;;;16.13;4.85;;;14.20;99.90;;;;;;5070992;28;20169;-48
2022/06/10 05:55:14;;;;;;;12.73;4.00;;;14.40;99.90;;;;;;5070705;28;20036;-48
2022/06/10 05:57:40;;;;;;;15.15;4.47;;;14.40;99.90;;;;;;5069611;28;20044;-48
2022/06/10 06:00:13;;;;;;;14.85;4.35;;;14.60;99.90;;;;;;5070282;28;20044;-45
2022/06/10 06:02:41;;;;;;;14.20;4.50;;;14.50;99.90;;;;;;5070158;28;20114;-47
2022/06/10 06:05:09;;;;;;;12.95;5.13;;;14.50;99.90;;;;;;5069139;28;20480;-50
2022/06/10 06:07:36;;;;;;;11.50;4.28;;;14.50;99.90;;;;;;5070303;28;20036;-50
2022/06/10 06:10:03;;;;;;;17.60;5.15;;;14.60;99.90;;;;;;5068993;28;20037;-44
2022/06/10 06:12:29;;;;;;;16.00;4.57;;;14.60;99.90;;;;;;5068694;28;20386;-47
2022/06/10 06:14:54;;;;;;;15.18;4.85;;;14.60;99.90;;;;;;5070346;28;20037;-46
2022/06/10 06:17:21;;;;;;;13.88;4.63;;;14.70;99.90;;;;;;5068894;28;20047;-48
2022/06/10 06:19:47;;;;;;;17.13;5.05;;;14.80;99.90;;;;;;5070340;28;20076;-46
2022/06/10 06:22:13;;;;;;;10.32;4.47;;;14.70;99.90;;;;;;5069932;28;20044;-51
2022/06/10 06:24:39;;;;;;;11.98;4.65;;;14.80;99.90;;;;;;5070150;28;20040;-47
2022/06/10 06:27:07;;;;;;;13.68;4.68;;;15.00;99.90;;;;;;5059734;28;20036;-47
2022/06/10 06:29:32;;;;;;;17.33;5.13;;;15.00;99.90;;;;;;5061162;28;20039;-48
2022/06/10 06:31:58;;;;;;;10.45;4.97;;;15.20;99.90;;;;;;5061114;28;20028;-47
2022/06/10 06:34:25;;;;;;;15.63;4.97;;;15.10;99.90;;;;;;5061918;28;20036;-47
2022/06/10 06:36:53;;;;;;;16.55;5.75;;;15.20;99.90;;;;;;5061073;28;20870;-46
2022/06/10 06:39:23;;;;;;;12.30;5.40;;;15.20;99.90;;;;;;5060707;28;20058;-47
2022/06/10 06:41:49;;;;;;;17.92;5.50;;;15.40;99.90;;;;;;5059513;28;20709;-49
2022/06/10 06:44:15;;;;;;;14.73;6.13;;;15.50;99.90;;;;;;5059928;28;20029;-48
2022/06/10 06:46:42;;;;;;;11.43;5.30;;;15.40;99.90;;;;;;5058851;28;20040;-48
2022/06/10 06:49:18;;;;;;;14.60;5.82;;;15.40;99.90;;;;;;5040152;28;20024;-47
2022/06/10 06:51:44;;;;;;;14.20;5.63;;;15.50;99.90;;;;;;5058029;28;20028;-51
2022/06/10 06:54:10;;;;;;;15.73;5.75;;;15.50;99.90;;;;;;5041101;28;20634;-47
2022/06/10 06:56:37;;;;;;;13.00;5.22;;;15.60;99.90;;;;;;5059518;28;20482;-45
2022/06/10 06:59:04;;;;;;;8.35;4.50;;;15.50;99.90;;;;;;5059351;28;20033;-50
2022/06/10 07:01:30;;;;;;;11.07;4.78;;;15.60;99.90;;;;;;5057161;28;20056;-48
2022/06/10 07:03:57;;;;;;;10.68;4.80;;;15.80;99.90;;;;;;5057482;28;20041;-46
2022/06/10 07:06:23;;;;;;;10.75;4.50;;;15.80;99.90;;;;;;5040203;28;20072;-48
2022/06/10 07:08:50;;;;;;;9.25;4.50;;;16.10;99.90;;;;;;5058446;28;20395;-45
2022/06/10 07:11:17;;;;;;;22.80;5.10;;;16.20;99.90;;;;;;5039342;28;20391;-49
2022/06/10 07:13:42;;;;;;;13.95;4.10;;;16.30;99.90;;;;;;5057947;28;20025;-47
2022/06/10 07:16:08;;;;;;;18.73;5.00;;;16.30;99.90;;;;;;5065917;28;20166;-46
2022/06/10 07:18:34;;;;;;;15.40;4.18;;;16.40;99.90;;;;;;5067069;28;20129;-51
2022/06/10 07:21:00;;;;;;;12.70;3.90;;;16.40;99.90;;;;;;5066434;28;20053;-46
2022/06/10 07:23:27;;;;;;;12.02;3.80;;;16.70;99.90;;;;;;5049418;28;20060;-49
2022/06/10 07:25:54;;;;;;;12.25;3.47;;;16.60;99.90;;;;;;5066149;28;20158;-49
2022/06/10 07:28:20;;;;;;;16.00;3.35;;;16.80;99.90;;;;;;5068946;28;20090;-44
2022/06/10 07:30:46;;;;;;;12.70;3.20;;;16.70;99.90;;;;;;5067730;28;20115;-45
2022/06/10 07:33:12;;;;;;;13.25;3.05;;;16.70;99.90;;;;;;5067624;28;20045;-46
2022/06/10 07:35:39;;;;;;;12.73;3.45;;;16.60;99.90;;;;;;5066414;28;20492;-50
2022/06/10 07:38:07;;;;;;;11.13;3.22;;;16.70;99.90;;;;;;5066457;28;20579;-49
2022/06/10 07:43:26;;;;;;;12.15;3.08;;;16.60;99.90;;;;;;5071020;28;20052;-48
2022/06/10 07:45:52;;;;;;;10.43;2.83;;;16.70;99.90;;;;;;5073043;28;20040;-47
2022/06/10 07:48:19;;;;;;;13.02;2.88;;;16.70;99.90;;;;;;5073338;28;20383;-47
2022/06/10 07:50:46;;;;;;;14.77;3.17;;;16.70;99.90;;;;;;5072627;28;20040;-46
2022/06/10 07:53:13;;;;;;;15.00;3.20;;;16.90;99.90;;;;;;5073292;28;20403;-50
2022/06/10 07:55:40;;;;;;;9.80;2.95;;;16.80;99.90;;;;;;5072992;28;20471;-49
2022/06/10 07:58:07;;;;;;;12.27;3.08;;;16.70;99.90;;;;;;5073120;28;20029;-49
2022/06/10 08:00:34;;;;;;;12.43;3.10;;;16.80;99.90;;;;;;5072590;28;20091;-48
2022/06/10 08:03:00;;;;;;;10.40;2.70;;;16.80;99.90;;;;;;5072578;28;20537;-47
2022/06/10 08:05:26;;;;;;;11.88;3.03;;;16.70;99.90;;;;;;5072523;28;20044;-50
2022/06/10 08:07:52;;;;;;;8.20;3.08;;;16.80;99.90;;;;;;5072798;28;20041;-49
2022/06/10 08:10:22;;;;;;;9.60;3.53;;;16.80;99.90;;;;;;5072932;28;20064;-49
2022/06/10 08:12:47;;;;;;;12.95;3.65;;;16.80;99.90;;;;;;5072770;28;20028;-51
2022/06/10 08:15:15;;;;;;;12.93;3.58;;;16.80;99.90;;;;;;5072657;28;20029;-48
2022/06/10 08:17:42;;;;;;;13.88;3.97;;;16.90;99.90;;;;;;5072575;28;20468;-50
2022/06/10 08:20:15;;;;;;;10.93;3.75;;;16.90;99.90;;;;;;5072600;28;20491;-48
2022/06/10 08:22:40;;;;;;;11.25;3.25;;;17.00;99.90;;;;;;5071598;28;20048;-51
2022/06/10 08:25:09;;;;;;;10.52;3.63;;;16.90;99.90;;;;;;5054178;28;20039;-47
2022/06/10 08:27:35;;;;;;;13.38;3.78;;;17.00;99.90;;;;;;5072302;28;20467;-51
2022/06/10 08:30:02;;;;;;;15.55;4.15;;;17.00;99.90;;;;;;5072271;28;20033;-48
2022/06/10 08:32:28;;;;;;;13.00;3.15;;;17.00;99.90;;;;;;5072034;28;20040;-49
2022/06/10 08:34:54;;;;;;;9.48;3.00;;;17.00;99.90;;;;;;5072035;28;20480;-47
2022/06/10 08:37:19;;;;;;;10.75;3.15;;;17.00;99.90;;;;;;5072169;28;20159;-49
2022/06/10 08:39:45;;;;;;;9.70;3.20;;;17.00;99.90;;;;;;5072291;28;20275;-47
2022/06/10 08:42:34;;;;;;;11.43;3.17;;;17.00;99.90;;;;;;5072389;28;20048;-49
2022/06/10 08:45:13;;;;;;;11.30;2.90;;;17.10;99.90;;;;;;5072130;28;20491;-50
2022/06/10 08:48:16;;;;;;;9.30;2.80;;;17.10;99.90;;;;;;5072154;28;20064;-48
2022/06/10 08:51:14;;;;;;;10.20;2.88;;;17.10;99.90;;;;;;5071814;28;20131;-50
2022/06/10 08:53:53;;;;;;;12.23;3.20;;;17.20;99.90;;;;;;5043437;28;20052;-47
2022/06/10 08:56:34;;;;;;;12.00;2.97;;;17.30;99.90;;;;;;5071803;28;20111;-49
2022/06/10 08:59:08;;;;;;;10.68;3.20;;;17.50;99.90;;;;;;5071964;28;20047;-51
2022/06/10 09:01:52;;;;;;;9.98;3.50;;;17.50;99.90;;;;;;5070895;28;20052;-49
2022/06/10 09:04:29;;;;;;;8.25;2.90;;;17.60;99.90;;;;;;5071894;28;20083;-46
2022/06/10 09:06:57;;;;;;;8.45;2.58;;;17.60;99.90;;;;;;5071823;28;20045;-46
2022/06/10 09:09:26;;;;;;;13.60;3.60;;;17.80;99.90;;;;;;5071539;28;20041;-51
2022/06/10 09:11:56;;;;;;;8.60;2.95;;;17.90;99.90;;;;;;5071548;28;20048;-46
2022/06/10 09:14:24;;;;;;;12.75;3.00;;;18.00;99.90;;;;;;5071084;28;20067;-48
2022/06/10 09:17:34;;;;;;;9.32;3.05;;;18.20;99.90;;;;;;5071152;28;20123;-49
2022/06/10 09:20:09;;;;;;;10.85;3.35;;;18.30;99.90;;;;;;5015687;28;20052;-49
2022/06/10 09:23:10;;;;;;;10.23;3.33;;;18.40;99.90;;;;;;5071065;28;20091;-52
2022/06/10 09:25:43;;;;;;;15.02;3.10;;;18.50;99.90;;;;;;5071234;28;20036;-48
2022/06/10 09:28:09;;;;;;;10.52;2.70;;;18.40;99.90;;;;;;5071004;28;20039;-48
2022/06/10 09:30:43;;;;;;;11.48;3.50;;;18.50;99.90;;;;;;5070055;28;20037;-49
2022/06/10 09:33:21;;;;;;;12.38;3.05;;;18.70;99.90;;;;;;5070604;28;20483;-49
2022/06/10 09:36:08;;;;;;;11.77;2.95;;;18.90;99.90;;;;;;5070813;28;20406;-52
2022/06/10 09:38:56;;;;;;;10.45;2.97;;;19.00;99.90;;;;;;5071181;28;20044;-51
2022/06/10 09:41:54;;;;;;;8.25;2.38;;;19.30;99.90;;;;;;5052904;28;20032;-51
2022/06/10 09:44:28;;;;;;;7.22;2.80;;;19.40;99.90;;;;;;5070978;28;20126;-50
2022/06/10 09:47:05;;;;;;;11.63;3.05;;;19.50;99.90;;;;;;5070657;28;20040;-50
2022/06/10 09:49:49;;;;;;;11.63;2.92;;;19.70;99.90;;;;;;5069661;28;20523;-49
2022/06/10 09:52:37;;;;;;;13.27;3.25;;;19.50;99.90;;;;;;5070350;28;20035;-47
2022/06/10 09:55:12;;;;;;;12.15;3.00;;;19.40;99.90;;;;;;5069741;28;20044;-50
2022/06/10 09:57:55;;;;;;;14.23;3.38;;;19.80;99.90;;;;;;5070844;28;20119;-48
2022/06/10 10:00:41;;;;;;;13.55;3.28;;;20.10;99.90;;;;;;5052622;28;20044;-52
2022/06/10 10:03:28;;;;;;;13.27;2.88;;;20.30;99.90;;;;;;5070335;28;20068;-50
2022/06/10 10:06:18;;;;;;;10.18;3.17;;;20.40;99.90;;;;;;5069881;28;20036;-49
2022/06/10 10:08:57;;;;;;;11.23;2.85;;;20.40;99.90;;;;;;5070165;28;20040;-49
2022/06/10 10:11:29;;;;;;;9.35;2.85;;;20.80;99.90;;;;;;5070743;28;20032;-50
2022/06/10 10:13:54;;;;;;;12.07;2.97;;;20.70;99.90;;;;;;5068812;28;20201;-53
2022/06/10 10:16:30;;;;;;;14.55;2.85;;;20.70;99.90;;;;;;5070196;28;20047;-51
2022/06/10 10:19:09;;;;;;;12.73;3.50;;;20.80;99.90;;;;;;5070382;28;20075;-51
2022/06/10 10:21:37;;;;;;;10.55;3.00;;;20.90;99.90;;;;;;5070165;28;20056;-49
2022/06/10 10:24:11;;;;;;;9.48;2.40;;;20.80;99.90;;;;;;5070132;28;20045;-52
2022/06/10 10:26:38;;;;;;;14.05;2.83;;;20.70;99.90;;;;;;5069222;28;20051;-47
2022/06/10 10:29:36;;;;;;;9.20;2.50;;;20.60;99.90;;;;;;5070234;28;20036;-49
2022/06/10 10:32:15;;;;;;;12.52;2.70;;;20.60;99.90;;;;;;5050001;28;20084;-49
2022/06/10 10:34:50;;;;;;;11.85;3.00;;;20.50;99.90;;;;;;5069824;28;20487;-52
2022/06/10 10:37:36;;;;;;;9.05;2.53;;;20.60;99.90;;;;;;5070401;28;20032;-50
2022/06/10 10:40:15;;;;;;;7.28;2.63;;;20.60;99.90;;;;;;5070237;28;20032;-53
2022/06/10 10:42:43;;;;;;;11.80;2.50;;;20.80;99.90;;;;;;5068682;28;20127;-53
2022/06/10 10:45:35;;;;;;;9.60;2.50;;;20.90;99.90;;;;;;5066798;28;20110;-51
2022/06/10 10:48:09;;;;;;;11.27;2.70;;;21.00;99.90;;;;;;5050934;28;20491;-49
2022/06/10 10:50:39;;;;;;;9.45;2.53;;;21.10;99.90;;;;;;5069938;28;20131;-49
2022/06/10 10:53:24;;;;;;;11.18;2.78;;;21.20;99.90;;;;;;5069616;28;20107;-48
2022/06/10 10:55:55;;;;;;;8.82;2.15;;;21.10;99.90;;;;;;5063967;28;20043;-49
2022/06/10 10:58:31;;;;;;;9.05;2.10;;;21.00;99.90;;;;;;5061077;28;20037;-49
2022/06/10 11:01:43;;;;;;;9.10;2.38;;;21.00;99.90;;;;;;5061363;28;20479;-50
2022/06/10 11:03:59;;;;;;;9.88;2.80;;;21.00;99.90;;;;;;5060335;28;20044;-47
2022/06/10 11:06:29;;;;;;;10.40;2.10;;;21.10;99.90;;;;;;5059828;28;20113;-49
2022/06/10 11:09:13;;;;;;;11.43;2.90;;;21.30;99.90;;;;;;5061752;28;20112;-49
2022/06/10 11:11:41;;;;;;;10.27;2.50;;;21.40;99.90;;;;;;5060252;28;20040;-50
2022/06/10 11:14:27;;;;;;;7.00;1.95;;;21.40;99.90;;;;;;5061151;28;20141;-52
2022/06/10 11:16:56;;;;;;;11.18;2.30;;;21.40;99.90;;;;;;5060625;28;20094;-48
2022/06/10 11:19:46;;;;;;;10.60;2.53;;;21.60;99.90;;;;;;5065595;28;20071;-49
2022/06/10 11:22:23;;;;;;;8.50;2.25;;;21.70;99.90;;;;;;5062384;28;20061;-51
2022/06/10 11:24:53;;;;;;;9.15;2.45;;;21.80;99.90;;;;;;5063912;28;20452;-50
2022/06/10 11:27:48;;;;;;;10.45;2.55;;;21.60;99.90;;;;;;5030058;28;20440;-51
2022/06/10 11:30:14;;;;;;;13.48;2.33;;;21.70;99.90;;;;;;5046245;28;20068;-51
2022/06/10 11:32:48;;;;;;;8.07;2.30;;;21.70;99.90;;;;;;5058897;28;20063;-48
2022/06/10 11:35:26;;;;;;;12.38;2.38;;;21.60;99.90;;;;;;5064766;28;20067;-50
2022/06/10 11:37:59;;;;;;;12.20;2.22;;;21.80;99.90;;;;;;5054630;28;20041;-49
2022/06/10 11:40:49;;;;;;;7.30;2.00;;;21.90;99.90;;;;;;5060804;28;20035;-48
2022/06/10 11:43:23;;;;;;;7.75;1.98;;;22.00;99.90;;;;;;5061492;28;20120;-49
2022/06/10 11:45:53;;;;;;;10.82;2.72;;;22.00;99.90;;;;;;5063405;28;20057;-49
2022/06/10 11:48:36;;;;;;;8.98;2.15;;;22.00;99.90;;;;;;5062804;28;20402;-46
2022/06/10 11:51:12;;;;;;;8.90;2.60;;;22.10;99.90;;;;;;5054783;28;20040;-46
2022/06/10 11:53:59;;;;;;;9.55;2.30;;;22.10;99.90;;;;;;5058865;28;20068;-48
2022/06/10 12:00:00;;;;;;;10.30;2.13;;;22.10;99.90;;;;;;5062999;28;20059;-47
2022/06/10 12:02:49;;;;;;;8.80;2.20;;;22.10;99.90;;;;;;5059861;28;20037;-51
2022/06/10 12:05:42;;;;;;;8.55;2.30;;;22.00;99.90;;;;;;5063161;28;20076;-50
2022/06/10 12:08:29;;;;;;;12.48;2.95;;;22.10;99.90;;;;;;5062677;28;20048;-48
2022/06/10 12:11:03;;;;;;;10.80;2.92;;;22.30;99.90;;;;;;5060520;28;20051;-52
2022/06/10 12:13:37;;;;;;;9.70;2.33;;;22.20;99.90;;;;;;5064703;28;20119;-51
2022/06/10 12:16:05;;;;;;;9.90;2.67;;;22.00;99.90;;;;;;5060164;28;20140;-49
2022/06/10 12:18:39;;;;;;;9.32;2.42;;;21.80;99.90;;;;;;5064033;28;20041;-51
2022/06/10 12:21:05;;;;;;;10.05;2.55;;;21.60;99.90;;;;;;5063756;28;20090;-51
2022/06/10 12:23:35;;;;;;;10.70;3.03;;;21.40;99.90;;;;;;5061019;28;20048;-50
2022/06/10 12:26:13;;;;;;;8.38;2.50;;;21.50;99.90;;;;;;5057106;28;20040;-49
2022/06/10 12:28:45;;;;;;;9.60;2.75;;;21.40;99.90;;;;;;5061780;28;20039;-47
2022/06/10 12:31:25;;;;;;;11.70;2.70;;;21.40;99.90;;;;;;5063058;28;20050;-51
2022/06/10 12:33:58;;;;;;;9.45;2.60;;;21.50;99.90;;;;;;5060912;28;20111;-49
2022/06/10 12:36:40;;;;;;;8.38;2.42;;;21.40;99.90;;;;;;5045933;28;20040;-48
2022/06/10 12:39:20;;;;;;;8.63;2.42;;;21.50;99.90;;;;;;5063558;28;20036;-49
2022/06/10 12:41:49;;;;;;;10.52;2.35;;;21.70;99.90;;;;;;5061398;28;20422;-48
2022/06/10 12:44:21;;;;;;;10.85;2.60;;;21.70;99.90;;;;;;5059181;28;20574;-51
2022/06/10 12:46:54;;;;;;;10.80;2.53;;;21.80;99.90;;;;;;5059965;28;20055;-51
2022/06/10 12:49:34;;;;;;;10.25;2.35;;;21.90;99.90;;;;;;5058345;28;20070;-52
2022/06/10 12:52:19;;;;;;;12.55;2.60;;;22.10;99.90;;;;;;5042001;28;20047;-50
2022/06/10 12:55:18;;;;;;;6.25;2.25;;;22.50;99.90;;;;;;5059289;28;20118;-52
2022/06/10 12:57:46;;;;;;;11.23;2.95;;;22.50;99.90;;;;;;5062899;28;20036;-52
2022/06/10 13:00:18;;;;;;;9.65;2.55;;;22.90;99.90;;;;;;5062995;28;20036;-51
2022/06/10 13:02:57;;;;;;;13.10;2.95;;;22.70;99.90;;;;;;5062884;28;20033;-50
2022/06/10 13:05:41;;;;;;;10.35;3.10;;;22.60;99.90;;;;;;5063489;28;20070;-51
2022/06/10 13:08:34;;;;;;;11.18;2.65;;;22.40;99.90;;;;;;5063229;28;20093;-52
2022/06/10 13:11:02;;;;;;;8.15;2.20;;;22.50;99.90;;;;;;5063736;28;20044;-47
2022/06/10 13:13:28;;;;;;;9.60;1.80;;;22.60;99.90;;;;;;5063909;28;20107;-49
2022/06/10 13:16:25;;;;;;;6.63;1.60;;;22.70;99.90;;;;;;5061909;28;20114;-55
2022/06/10 13:18:57;;;;;;;8.13;1.85;;;22.50;99.90;;;;;;5062408;28;20043;-51
2022/06/10 13:21:29;;;;;;;5.80;1.92;;;22.70;99.90;;;;;;5062339;28;20045;-47
2022/06/10 13:23:58;;;;;;;9.23;1.70;;;23.00;99.90;;;;;;5063914;28;20185;-49